createdAt,value
2022-10-04T00:01:59.337Z,102168.44
2022-10-04T00:04:28.628Z,102166.63
2022-10-04T00:06:59.729Z,102173.63
2022-10-04T00:09:33.376Z,102173.50
2022-10-04T00:12:01.837Z,102171.81
2022-10-04T00:14:31.495Z,102173.63
2022-10-04T00:16:59.940Z,102172.91
2022-10-04T00:19:40.781Z,102167.91
2022-10-04T00:22:26.139Z,102166.00
2022-10-04T00:25:22.790Z,102162.50
2022-10-04T00:28:30.061Z,102160.69
2022-10-04T00:31:23.349Z,102157.28
2022-10-04T00:33:53.732Z,102163.56
2022-10-04T00:36:49.449Z,102150.28
2022-10-04T00:39:27.173Z,102147.63
2022-10-04T00:42:12.807Z,102137.84
2022-10-04T00:44:45.628Z,102138.91
2022-10-04T00:47:23.957Z,102146.88
2022-10-04T00:49:57.090Z,102128.31
2022-10-04T00:52:27.723Z,102125.88
2022-10-04T00:54:58.595Z,102123.09
2022-10-04T00:57:29.816Z,102130.22
2022-10-04T00:59:59.765Z,102126.59
2022-10-04T01:02:30.726Z,102116.94
2022-10-04T01:05:00.656Z,102117.78
2022-10-04T01:07:30.394Z,102109.81
2022-10-04T01:10:01.422Z,102104.63
2022-10-04T01:12:44.706Z,102105.25
2022-10-04T01:15:16.106Z,102098.34
2022-10-04T01:18:09.288Z,102110.44
2022-10-04T01:20:39.450Z,102098.34
2022-10-04T01:23:10.603Z,102094.75
2022-10-04T01:25:47.442Z,102091.34
2022-10-04T01:28:15.423Z,102098.13
2022-10-04T01:30:43.565Z,102084.84
2022-10-04T01:33:13.389Z,102080.50
2022-10-04T01:35:41.327Z,102083.38
2022-10-04T01:38:10.405Z,102083.16
2022-10-04T01:40:43.929Z,102086.66
2022-10-04T01:43:13.714Z,102081.47
2022-10-04T01:45:45.309Z,102077.13
2022-10-04T01:48:16.099Z,102073.50
2022-10-04T01:50:45.902Z,102079.66
2022-10-04T01:53:20.973Z,102073.63
2022-10-04T01:55:51.431Z,102064.88
2022-10-04T01:58:21.821Z,102057.78
2022-10-04T02:00:54.600Z,102065.84
2022-10-04T02:03:25.389Z,102050.31
2022-10-04T02:05:55.465Z,102075.63
2022-10-04T02:08:30.722Z,102070.31
2022-10-04T02:10:58.848Z,102064.25
2022-10-04T02:13:29.461Z,102060.88
2022-10-04T02:15:57.420Z,102050.31
2022-10-04T02:18:25.584Z,102046.94
2022-10-04T02:20:53.531Z,102046.34
2022-10-04T02:23:21.811Z,102044.63
2022-10-04T02:25:51.061Z,102040.25
2022-10-04T02:28:19.252Z,102037.72
2022-10-04T02:31:09.362Z,102034.22
2022-10-04T02:33:40.264Z,102018.53
2022-10-04T02:36:09.407Z,102020.94
2022-10-04T02:38:39.062Z,102005.38
2022-10-04T02:41:13.710Z,102010.44
2022-10-04T02:43:47.271Z,102020.22
2022-10-04T02:46:16.838Z,102015.88
2022-10-04T02:48:48.397Z,102031.06
2022-10-04T02:51:20.959Z,102027.66
2022-10-04T02:53:54.702Z,102022.59
2022-10-04T02:56:25.953Z,102012.09
2022-10-04T02:58:54.309Z,102016.75
2022-10-04T03:01:29.509Z,102012.53
2022-10-04T03:03:58.496Z,102009.97
2022-10-04T03:06:32.383Z,102008.38
2022-10-04T03:09:02.437Z,102002.22
2022-10-04T03:11:35.377Z,102004.16
2022-10-04T03:14:05.261Z,101998.84
2022-10-04T03:16:36.249Z,101997.16
2022-10-04T03:19:04.286Z,102001.72
2022-10-04T03:21:33.078Z,102008.94
2022-10-04T03:24:01.840Z,102003.84
2022-10-04T03:26:37.199Z,102000.66
2022-10-04T03:29:09.501Z,101998.00
2022-10-04T03:31:40.900Z,101982.31
2022-10-04T03:34:15.042Z,101992.94
2022-10-04T03:36:42.913Z,101988.59
2022-10-04T03:39:12.217Z,101987.63
2022-10-04T03:41:42.327Z,101978.94
2022-10-04T03:44:16.277Z,101977.13
2022-10-04T03:46:45.362Z,101971.91
2022-10-04T03:49:13.959Z,101971.06
2022-10-04T03:51:45.406Z,101969.38
2022-10-04T03:54:17.921Z,101959.72
2022-10-04T03:56:47.005Z,101957.94
2022-10-04T03:59:17.866Z,101948.28
2022-10-04T04:01:48.100Z,101951.88
2022-10-04T04:04:20.465Z,101952.13
2022-10-04T04:06:53.618Z,101954.84
2022-10-04T04:09:25.261Z,101966.44
2022-10-04T04:11:56.097Z,101945.56
2022-10-04T04:14:26.216Z,101958.59
2022-10-04T04:16:54.548Z,101952.44
2022-10-04T04:19:24.795Z,101950.84
2022-10-04T04:21:54.784Z,101937.81
2022-10-04T04:24:26.232Z,101938.44
2022-10-04T04:26:59.447Z,101942.91
2022-10-04T04:29:32.265Z,101925.63
2022-10-04T04:32:02.440Z,101928.16
2022-10-04T04:34:33.162Z,101940.44
2022-10-04T04:37:01.860Z,101929.13
2022-10-04T04:39:37.488Z,101939.72
2022-10-04T04:42:12.925Z,101936.53
2022-10-04T04:44:48.207Z,101937.50
2022-10-04T04:47:26.954Z,101943.88
2022-10-04T04:49:55.113Z,101942.25
2022-10-04T04:52:27.039Z,101945.03
2022-10-04T04:54:55.826Z,101937.50
2022-10-04T04:57:25.008Z,101945.47
2022-10-04T04:59:57.089Z,101928.31
2022-10-04T05:02:33.120Z,101928.41
2022-10-04T05:05:17.861Z,101927.66
2022-10-04T05:07:45.711Z,101925.75
2022-10-04T05:10:30.463Z,101931.06
2022-10-04T05:13:00.903Z,101945.38
2022-10-04T05:15:29.799Z,101941.34
2022-10-04T05:17:57.456Z,101930.22
2022-10-04T05:20:26.292Z,101940.59
2022-10-04T05:22:55.060Z,101939.88
2022-10-04T05:25:27.998Z,101932.78
2022-10-04T05:27:56.739Z,101931.94
2022-10-04T05:30:39.038Z,101938.19
2022-10-04T05:33:08.830Z,101945.28
2022-10-04T05:35:45.089Z,101943.78
2022-10-04T05:38:16.752Z,101948.63
2022-10-04T05:40:49.174Z,101943.31
2022-10-04T05:43:27.628Z,101934.41
2022-10-04T05:46:19.593Z,101936.44
2022-10-04T05:48:48.489Z,101940.91
2022-10-04T05:51:20.661Z,101942.38
2022-10-04T05:53:49.899Z,101941.41
2022-10-04T05:56:41.187Z,101949.34
2022-10-04T05:59:16.880Z,101945.88
2022-10-04T06:01:51.744Z,101939.56
2022-10-04T06:04:48.437Z,101944.84
2022-10-04T06:07:23.290Z,101944.84
2022-10-04T06:10:07.108Z,101929.13
2022-10-04T06:12:44.661Z,101936.78
2022-10-04T06:15:32.809Z,101938.50
2022-10-04T06:18:22.810Z,101953.53
2022-10-04T06:21:21.441Z,101942.94
2022-10-04T06:23:54.321Z,101952.69
2022-10-04T06:26:25.051Z,101945.88
2022-10-04T06:28:57.021Z,101944.16
2022-10-04T06:31:49.584Z,101954.50
2022-10-04T06:34:49.688Z,101939.72
2022-10-04T06:37:29.507Z,101948.44
2022-10-04T06:40:20.060Z,101938.72
2022-10-04T06:42:59.569Z,101951.09
2022-10-04T06:45:36.631Z,101931.25
2022-10-04T06:48:20.242Z,101946.53
2022-10-04T06:50:51.711Z,101942.94
2022-10-04T06:53:27.668Z,101945.00
2022-10-04T06:56:20.580Z,101948.44
2022-10-04T06:59:13.714Z,101953.72
2022-10-04T07:01:49.911Z,101950.31
2022-10-04T07:04:26.553Z,101946.94
2022-10-04T07:07:24.781Z,101952.97
2022-10-04T07:09:55.622Z,101950.16
2022-10-04T07:12:23.946Z,101953.53
2022-10-04T07:14:53.975Z,101955.00
2022-10-04T07:17:25.513Z,101951.63
2022-10-04T07:19:53.733Z,101955.00
2022-10-04T07:22:28.594Z,101946.22
2022-10-04T07:25:06.594Z,101947.06
2022-10-04T07:27:36.394Z,101955.00
2022-10-04T07:30:06.838Z,101948.00
2022-10-04T07:32:38.822Z,101944.09
2022-10-04T07:35:16.808Z,101948.44
2022-10-04T07:37:51.371Z,101952.25
2022-10-04T07:40:24.078Z,101946.75
2022-10-04T07:42:54.960Z,101951.63
2022-10-04T07:45:29.148Z,101940.81
2022-10-04T07:48:05.451Z,101952.25
2022-10-04T07:50:37.903Z,101950.09
2022-10-04T07:53:10.921Z,101942.91
2022-10-04T07:55:49.245Z,101944.16
2022-10-04T07:58:24.667Z,101940.56
2022-10-04T08:00:56.473Z,101941.81
2022-10-04T08:03:58.290Z,101930.97
2022-10-04T08:06:34.038Z,101935.59
2022-10-04T08:09:24.939Z,101932.63
2022-10-04T08:12:01.664Z,101941.84
2022-10-04T08:14:41.104Z,101935.22
2022-10-04T08:17:18.574Z,101935.53
2022-10-04T08:19:54.428Z,101934.31
2022-10-04T08:22:35.058Z,101939.38
2022-10-04T08:25:09.658Z,101936.97
2022-10-04T08:28:13.748Z,101942.94
2022-10-04T08:30:56.352Z,101946.63
2022-10-04T08:33:32.141Z,101941.19
2022-10-04T08:38:51.602Z,101908.28
2022-10-04T08:42:01.859Z,101926.38
2022-10-04T08:44:56.817Z,101921.97
2022-10-04T08:48:00.360Z,101922.81
2022-10-04T08:52:25.487Z,101918.03
2022-10-04T08:55:34.965Z,101919.38
2022-10-04T08:58:14.182Z,101909.97
2022-10-04T09:00:55.864Z,101923.13
2022-10-04T09:04:01.746Z,101916.75
2022-10-04T09:06:41.882Z,101916.75
2022-10-04T09:09:53.765Z,101916.50
2022-10-04T09:12:49.351Z,101914.81
2022-10-04T09:15:27.404Z,101915.53
2022-10-04T09:17:56.478Z,101924.97
2022-10-04T09:20:38.935Z,101907.81
2022-10-04T09:23:13.744Z,101901.69
2022-10-04T09:25:49.981Z,101902.63
2022-10-04T09:28:40.578Z,101902.75
2022-10-04T09:31:27.789Z,101903.00
2022-10-04T09:34:12.212Z,101889.22
2022-10-04T09:37:00.580Z,101902.50
2022-10-04T09:39:58.976Z,101898.38
2022-10-04T09:42:39.343Z,101883.16
2022-10-04T09:45:25.188Z,101888.78
2022-10-04T09:48:04.014Z,101886.75
2022-10-04T09:51:05.564Z,101886.25
2022-10-04T09:53:52.859Z,101903.41
2022-10-04T09:56:34.280Z,101894.19
2022-10-04T09:59:37.590Z,101893.41
2022-10-04T10:02:38.730Z,101890.25
2022-10-04T10:05:23.776Z,101888.28
2022-10-04T10:07:53.867Z,101890.47
2022-10-04T10:10:45.315Z,101885.13
2022-10-04T10:13:40.639Z,101890.28
2022-10-04T10:16:21.270Z,101892.31
2022-10-04T10:18:59.066Z,101880.41
2022-10-04T10:21:46.200Z,101894.94
2022-10-04T10:24:31.483Z,101884.88
2022-10-04T10:27:07.803Z,101895.16
2022-10-04T10:30:05.208Z,101894.94
2022-10-04T10:33:04.246Z,101893.00
2022-10-04T10:35:43.634Z,101885.91
2022-10-04T10:38:28.169Z,101882.19
2022-10-04T10:41:10.169Z,101881.53
2022-10-04T10:44:02.376Z,101885.78
2022-10-04T10:46:43.972Z,101870.25
2022-10-04T10:49:24.222Z,101875.31
2022-10-04T10:52:20.160Z,101858.78
2022-10-04T10:55:07.842Z,101867.78
2022-10-04T10:57:53.963Z,101858.94
2022-10-04T11:00:22.599Z,101854.88
2022-10-04T11:03:32.266Z,101857.72
2022-10-04T11:06:15.822Z,101849.97
2022-10-04T11:09:15.697Z,101856.44
2022-10-04T11:12:05.061Z,101855.06
2022-10-04T11:14:51.590Z,101852.94
2022-10-04T11:17:25.682Z,101867.59
2022-10-04T11:20:24.819Z,101861.00
2022-10-04T11:23:15.820Z,101868.13
2022-10-04T11:25:57.498Z,101863.59
2022-10-04T11:28:33.069Z,101852.94
2022-10-04T11:31:30.268Z,101843.09
2022-10-04T11:34:18.482Z,101835.28
2022-10-04T11:36:55.094Z,101834.50
2022-10-04T11:39:55.206Z,101832.00
2022-10-04T11:42:30.306Z,101826.09
2022-10-04T11:45:20.759Z,101826.25
2022-10-04T11:47:59.850Z,101822.53
2022-10-04T11:50:51.310Z,101819.84
2022-10-04T11:53:42.670Z,101819.78
2022-10-04T11:56:31.472Z,101811.91
2022-10-04T11:59:06.015Z,101806.13
2022-10-04T12:01:43.902Z,101807.34
2022-10-04T12:04:32.113Z,101799.78
2022-10-04T12:07:06.278Z,101798.78
2022-10-04T12:09:34.952Z,101796.25
2022-10-04T12:12:39.027Z,101790.56
2022-10-04T12:15:33.017Z,101783.34
2022-10-04T12:18:06.425Z,101786.31
2022-10-04T12:20:43.164Z,101779.81
2022-10-04T12:23:29.573Z,101783.84
2022-10-04T12:26:18.389Z,101780.63
2022-10-04T12:28:56.256Z,101781.03
2022-10-04T12:31:25.478Z,101782.16
2022-10-04T12:33:55.002Z,101788.75
2022-10-04T12:36:31.025Z,101783.66
2022-10-04T12:39:13.459Z,101784.63
2022-10-04T12:41:44.841Z,101776.66
2022-10-04T12:44:18.047Z,101773.28
2022-10-04T12:46:51.549Z,101775.09
2022-10-04T12:49:21.434Z,101763.59
2022-10-04T12:51:50.920Z,101767.94
2022-10-04T12:54:22.377Z,101769.78
2022-10-04T12:56:50.918Z,101766.97
2022-10-04T12:59:23.247Z,101751.81
2022-10-04T13:01:53.192Z,101744.66
2022-10-04T13:04:26.236Z,101744.66
2022-10-04T13:06:55.977Z,101748.03
2022-10-04T13:09:26.549Z,101739.06
2022-10-04T13:11:58.864Z,101743.53
2022-10-04T13:14:32.667Z,101742.69
2022-10-04T13:19:53.101Z,101729.81
2022-10-04T13:22:51.346Z,101728.69
2022-10-04T13:25:28.395Z,101731.66
2022-10-04T13:27:58.381Z,101721.47
2022-10-04T13:30:28.116Z,101722.72
2022-10-04T13:32:57.881Z,101714.72
2022-10-04T13:35:26.280Z,101719.50
2022-10-04T13:37:59.820Z,101717.53
2022-10-04T13:40:32.515Z,101724.81
2022-10-04T13:43:14.913Z,101724.81
2022-10-04T13:45:48.059Z,101716.13
2022-10-04T13:48:26.034Z,101714.56
2022-10-04T13:51:03.575Z,101713.00
2022-10-04T13:53:53.997Z,101708.66
2022-10-04T13:56:40.306Z,101714.97
2022-10-04T13:59:10.538Z,101709.38
2022-10-04T14:02:12.560Z,101716.13
2022-10-04T14:04:48.149Z,101708.53
2022-10-04T14:07:37.150Z,101700.97
2022-10-04T14:10:11.839Z,101685.97
2022-10-04T14:12:54.954Z,101677.28
2022-10-04T14:15:26.194Z,101675.91
2022-10-04T14:20:44.324Z,101668.19
2022-10-04T14:23:22.209Z,101667.88
2022-10-04T14:26:04.533Z,101654.41
2022-10-04T14:28:50.482Z,101649.06
2022-10-04T14:31:23.449Z,101650.91
2022-10-04T14:33:55.697Z,101649.22
2022-10-04T14:36:30.233Z,101659.19
2022-10-04T14:39:09.037Z,101659.34
2022-10-04T14:41:41.458Z,101657.78
2022-10-04T14:44:29.952Z,101651.06
2022-10-04T14:47:01.797Z,101637.03
2022-10-04T14:49:37.630Z,101650.47
2022-10-04T14:52:09.816Z,101631.69
2022-10-04T14:54:40.336Z,101633.38
2022-10-04T14:57:08.816Z,101639.69
2022-10-04T14:59:43.131Z,101651.31
2022-10-04T15:02:13.731Z,101658.75
2022-10-04T15:04:56.322Z,101656.38
2022-10-04T15:07:30.067Z,101664.78
2022-10-04T15:09:58.365Z,101675.75
2022-10-04T15:15:47.537Z,101666.88
2022-10-04T15:18:23.359Z,101669.81
2022-10-04T15:20:51.856Z,101671.78
2022-10-04T15:23:28.194Z,101669.38
2022-10-04T15:25:56.239Z,101675.97
2022-10-04T15:28:38.723Z,101665.72
2022-10-04T15:31:07.408Z,101670.50
2022-10-04T15:33:36.843Z,101667.38
2022-10-04T15:36:23.112Z,101680.16
2022-10-04T15:38:57.128Z,101672.56
2022-10-04T15:41:27.270Z,101669.44
2022-10-04T15:44:11.838Z,101670.66
2022-10-04T15:46:41.390Z,101664.91
2022-10-04T15:49:12.896Z,101665.19
2022-10-04T15:51:44.264Z,101661.91
2022-10-04T15:54:17.423Z,101665.72
2022-10-04T15:56:47.824Z,101658.69
2022-10-04T15:59:22.737Z,101651.69
2022-10-04T16:01:55.123Z,101659.78
2022-10-04T16:04:49.704Z,101653.63
2022-10-04T16:07:40.094Z,101657.25
2022-10-04T16:10:18.652Z,101662.88
2022-10-04T16:13:14.167Z,101658.53
2022-10-04T16:15:41.799Z,101657.78
2022-10-04T16:18:35.119Z,101663.41
2022-10-04T16:21:07.199Z,101669.00
2022-10-04T16:23:35.523Z,101663.09
2022-10-04T16:26:05.501Z,101660.56
2022-10-04T16:28:44.566Z,101655.50
2022-10-04T16:31:29.769Z,101644.25
2022-10-04T16:33:58.951Z,101644.53
2022-10-04T16:36:26.806Z,101648.28
2022-10-04T16:39:12.589Z,101647.59
2022-10-04T16:41:44.292Z,101657.66
2022-10-04T16:44:13.632Z,101652.59
2022-10-04T16:46:45.016Z,101659.03
2022-10-04T16:49:17.881Z,101663.75
2022-10-04T16:51:57.809Z,101654.38
2022-10-04T16:54:37.285Z,101654.59
2022-10-04T16:57:14.086Z,101656.69
2022-10-04T16:59:45.390Z,101653.47
2022-10-04T17:02:18.095Z,101658.06
2022-10-04T17:04:56.202Z,101667.16
2022-10-04T17:07:26.230Z,101663.03
2022-10-04T17:09:55.846Z,101658.13
2022-10-04T17:12:25.878Z,101656.81
2022-10-04T17:15:12.292Z,101654.44
2022-10-04T17:17:44.200Z,101660.13
2022-10-04T17:20:13.925Z,101654.19
2022-10-04T17:22:44.171Z,101657.09
2022-10-04T17:25:18.164Z,101656.66
2022-10-04T17:27:49.101Z,101657.88
2022-10-04T17:30:18.141Z,101667.78
2022-10-04T17:32:56.007Z,101675.06
2022-10-04T17:35:38.736Z,101675.31
2022-10-04T17:38:07.589Z,101677.25
2022-10-04T17:40:38.511Z,101677.47
2022-10-04T17:43:08.516Z,101670.47
2022-10-04T17:45:44.512Z,101670.75
2022-10-04T17:48:29.685Z,101679.81
2022-10-04T17:51:15.554Z,101672.94
2022-10-04T17:54:00.942Z,101681.88
2022-10-04T17:56:29.666Z,101683.81
2022-10-04T17:58:59.024Z,101676.81
2022-10-04T18:01:27.725Z,101654.81
2022-10-04T18:03:57.568Z,101654.94
2022-10-04T18:06:30.129Z,101653.25
2022-10-04T18:08:58.747Z,101646.41
2022-10-04T18:11:27.951Z,101645.69
2022-10-04T18:13:58.786Z,101655.56
2022-10-04T18:16:28.056Z,101661.16
2022-10-04T18:18:55.701Z,101677.09
2022-10-04T18:21:27.257Z,101677.22
2022-10-04T18:23:56.102Z,101681.69
2022-10-04T18:26:24.023Z,101681.78
2022-10-04T18:28:53.837Z,101683.59
2022-10-04T18:31:30.076Z,101688.09
2022-10-04T18:33:57.996Z,101681.94
2022-10-04T18:36:29.571Z,101675.78
2022-10-04T18:39:03.443Z,101667.78
2022-10-04T18:41:44.797Z,101666.94
2022-10-04T18:44:14.292Z,101660.94
2022-10-04T18:46:46.557Z,101669.03
2022-10-04T18:49:15.521Z,101658.50
2022-10-04T18:51:45.054Z,101651.50
2022-10-04T18:54:14.848Z,101655.13
2022-10-04T18:56:46.715Z,101644.63
2022-10-04T18:59:32.969Z,101648.25
2022-10-04T19:02:06.511Z,101644.91
2022-10-04T19:04:48.509Z,101653.81
2022-10-04T19:07:16.801Z,101651.28
2022-10-04T19:09:52.677Z,101656.72
2022-10-04T19:12:21.275Z,101662.16
2022-10-04T19:14:49.795Z,101674.72
2022-10-04T19:17:19.926Z,101674.81
2022-10-04T19:19:49.248Z,101675.81
2022-10-04T19:22:18.568Z,101670.63
2022-10-04T19:24:52.053Z,101662.66
2022-10-04T19:27:22.598Z,101662.66
2022-10-04T19:29:54.408Z,101655.66
2022-10-04T19:32:25.913Z,101646.00
2022-10-04T19:34:54.736Z,101650.56
2022-10-04T19:37:23.106Z,101652.28
2022-10-04T19:39:51.947Z,101652.38
2022-10-04T19:42:19.578Z,101652.50
2022-10-04T19:44:52.989Z,101638.38
2022-10-04T19:47:31.083Z,101643.97
2022-10-04T19:49:58.953Z,101644.94
2022-10-04T19:52:28.815Z,101633.47
2022-10-04T19:54:58.522Z,101631.75
2022-10-04T19:57:30.647Z,101624.75
2022-10-04T19:59:58.133Z,101616.91
2022-10-04T20:02:25.647Z,101624.16
2022-10-04T20:04:54.599Z,101616.34
2022-10-04T20:07:23.591Z,101611.13
2022-10-04T20:09:52.390Z,101600.63
2022-10-04T20:12:30.408Z,101603.28
2022-10-04T20:15:16.561Z,101588.31
2022-10-04T20:17:44.534Z,101593.63
2022-10-04T20:20:15.976Z,101604.25
2022-10-04T20:22:58.546Z,101603.41
2022-10-04T20:25:50.560Z,101615.00
2022-10-04T20:28:33.736Z,101612.34
2022-10-04T20:31:01.422Z,101614.16
2022-10-04T20:33:47.384Z,101619.47
2022-10-04T20:36:29.705Z,101622.13
2022-10-04T20:39:00.486Z,101621.28
2022-10-04T20:42:04.482Z,101625.63
2022-10-04T20:44:42.917Z,101615.84
2022-10-04T20:47:17.205Z,101625.50
2022-10-04T20:49:44.966Z,101626.34
2022-10-04T20:52:13.318Z,101618.25
2022-10-04T20:54:42.929Z,101617.41
2022-10-04T20:57:12.758Z,101610.19
2022-10-04T20:59:40.198Z,101596.91
2022-10-04T21:02:12.275Z,101604.75
2022-10-04T21:04:43.474Z,101598.59
2022-10-04T21:07:12.540Z,101602.22
2022-10-04T21:09:40.822Z,101605.72
2022-10-04T21:12:27.501Z,101617.19
2022-10-04T21:15:02.173Z,101615.34
2022-10-04T21:17:38.630Z,101609.91
2022-10-04T21:20:06.901Z,101603.75
2022-10-04T21:22:35.368Z,101610.75
2022-10-04T21:25:03.663Z,101607.13
2022-10-04T21:27:33.103Z,101608.81
2022-10-04T21:30:00.777Z,101607.97
2022-10-04T21:32:28.669Z,101616.78
2022-10-04T21:34:56.132Z,101623.69
2022-10-04T21:37:23.609Z,101622.72
2022-10-04T21:39:51.045Z,101617.28
2022-10-04T21:42:18.425Z,101612.81
2022-10-04T21:44:47.311Z,101618.97
2022-10-04T21:47:14.772Z,101610.00
2022-10-04T21:49:42.282Z,101600.22
2022-10-04T21:52:09.733Z,101611.69
2022-10-04T21:54:37.189Z,101614.25
2022-10-04T21:57:04.689Z,101625.72
2022-10-04T21:59:32.163Z,101622.31
2022-10-04T22:02:01.074Z,101617.75
2022-10-04T22:04:28.617Z,101621.25
2022-10-04T22:06:56.060Z,101618.47
2022-10-04T22:09:23.518Z,101618.47
2022-10-04T22:11:50.949Z,101614.84
2022-10-04T22:14:18.398Z,101614.84
2022-10-04T22:16:46.233Z,101614.84
2022-10-04T22:19:15.372Z,101611.47
2022-10-04T22:21:42.789Z,101612.19
2022-10-04T22:24:11.347Z,101605.19
2022-10-04T22:26:38.857Z,101610.50
2022-10-04T22:29:12.849Z,101606.88
2022-10-04T22:31:43.997Z,101608.69
2022-10-04T22:34:15.047Z,101610.50
2022-10-04T22:36:42.672Z,101607.84
2022-10-04T22:39:11.833Z,101603.38
2022-10-04T22:41:39.674Z,101598.91
2022-10-04T22:44:08.664Z,101589.25
2022-10-04T22:46:39.305Z,101591.91
2022-10-04T22:49:09.332Z,101580.44
2022-10-04T22:51:38.453Z,101581.28
2022-10-04T22:54:09.644Z,101582.25
2022-10-04T22:56:37.041Z,101577.91
2022-10-04T22:59:04.460Z,101574.28
2022-10-04T23:01:32.098Z,101580.44
2022-10-04T23:03:59.641Z,101574.28
2022-10-04T23:06:27.101Z,101577.91
2022-10-04T23:08:56.047Z,101577.91
2022-10-04T23:11:23.543Z,101580.56
2022-10-04T23:13:51.025Z,101579.72
2022-10-04T23:16:23.293Z,101577.91
2022-10-04T23:18:50.857Z,101574.41
2022-10-04T23:21:20.800Z,101570.88
2022-10-04T23:23:48.430Z,101568.22
2022-10-04T23:26:18.764Z,101562.91
2022-10-04T23:28:46.322Z,101558.59
2022-10-04T23:31:15.308Z,101554.97
2022-10-04T23:33:42.677Z,101549.63
2022-10-04T23:36:11.026Z,101542.66
2022-10-04T23:38:38.504Z,101542.66
2022-10-04T23:41:07.213Z,101546.28
2022-10-04T23:43:36.039Z,101547.25
2022-10-04T23:46:03.639Z,101546.28
2022-10-04T23:48:32.191Z,101547.13
2022-10-04T23:51:00.890Z,101535.66
2022-10-04T23:53:28.914Z,101549.06
2022-10-04T23:55:56.464Z,101541.81
2022-10-04T23:58:24.324Z,101551.59
